Aviation Digital Data Service (ADDS)

Output produced by METARs form (0949 UTC 02 July 2015)
found at http://aviationweather.gov/adds/metars/
 
KSAN 020918Z 0209/0312 VRB05KT P6SM BKN010 
     TEMPO 0209/0212 5SM BR BKN008 
     FM021500 VRB04KT P6SM SCT012 
     FM021800 29010KT P6SM SCT200 
     FM030200 VRB05KT P6SM FEW010 
     FM030700 VRB03KT P6SM BKN010